createdAt,value
2023-02-09T06:00:13.372Z,64.50
2023-02-09T06:05:17.215Z,64.50
2023-02-09T06:10:21.331Z,64.60
2023-02-09T06:15:26.392Z,64.60
2023-02-09T06:20:30.094Z,64.60
2023-02-09T06:25:33.740Z,64.50
2023-02-09T06:30:38.761Z,64.40
2023-02-09T06:35:42.463Z,64.70
2023-02-09T06:40:47.048Z,64.70
2023-02-09T06:45:52.250Z,64.80
2023-02-09T06:50:55.886Z,64.80
2023-02-09T06:56:02.408Z,64.90
2023-02-09T07:01:09.269Z,65.00
2023-02-09T07:06:14.532Z,65.10
2023-02-09T07:11:19.715Z,65.20
2023-02-09T07:16:24.957Z,65.20
2023-02-09T07:21:28.746Z,65.20
2023-02-09T07:26:32.353Z,65.00
2023-02-09T07:31:37.458Z,65.50
2023-02-09T07:36:41.226Z,66.00
2023-02-09T07:41:44.792Z,65.80
2023-02-09T07:46:50.051Z,65.90
2023-02-09T07:51:53.698Z,65.90
2023-02-09T07:56:57.482Z,66.10
2023-02-09T08:02:02.530Z,66.70
2023-02-09T08:07:06.248Z,66.00
2023-02-09T08:12:10.162Z,65.90
2023-02-09T08:17:25.964Z,65.90
2023-02-09T08:22:33.268Z,65.70
2023-02-09T08:27:39.192Z,65.70
2023-02-09T08:32:44.443Z,65.70
2023-02-09T08:37:48.118Z,65.80
2023-02-09T08:42:51.684Z,65.90
2023-02-09T08:47:56.947Z,65.80
2023-02-09T08:53:02.880Z,65.70
2023-02-09T08:58:07.703Z,65.80
2023-02-09T09:03:12.793Z,65.70
2023-02-09T09:08:16.390Z,65.80
2023-02-09T09:13:20.217Z,65.70
2023-02-09T09:18:27.636Z,65.90
2023-02-09T09:23:31.294Z,65.80
2023-02-09T09:28:34.912Z,65.60
2023-02-09T09:33:40.094Z,65.40
2023-02-09T09:38:43.937Z,65.20
2023-02-09T09:43:47.712Z,64.90
2023-02-09T09:48:54.942Z,64.80
2023-02-09T09:54:00.825Z,64.60
2023-02-09T09:59:04.746Z,63.90
2023-02-09T10:04:13.642Z,62.80
2023-02-09T10:09:28.992Z,62.90
2023-02-09T10:14:32.657Z,63.30
2023-02-09T10:19:37.726Z,63.20
2023-02-09T10:24:42.067Z,63.40
2023-02-09T10:29:45.778Z,63.80
2023-02-09T10:34:53.034Z,64.30
2023-02-09T10:40:07.072Z,64.20
2023-02-09T10:45:17.235Z,64.30
2023-02-09T10:50:22.617Z,64.40
2023-02-09T10:55:30.331Z,64.30
2023-02-09T11:00:39.850Z,64.20
2023-02-09T11:05:48.052Z,64.20
2023-02-09T11:11:05.120Z,64.10
2023-02-09T11:16:44.435Z,64.30
2023-02-09T11:22:00.756Z,64.30
2023-02-09T11:27:12.304Z,64.50
2023-02-09T11:32:21.733Z,64.40
2023-02-09T11:37:32.307Z,63.70
2023-02-09T11:42:46.402Z,62.50
2023-02-09T11:47:58.746Z,61.40
2023-02-09T11:53:07.330Z,60.50
2023-02-09T11:58:31.223Z,59.60
2023-02-09T12:03:34.875Z,58.90
2023-02-09T12:09:02.692Z,58.40
2023-02-09T12:14:23.306Z,58.30
2023-02-09T12:19:34.076Z,58.20
2023-02-09T12:24:41.716Z,58.30
2023-02-09T12:29:45.398Z,57.60
2023-02-09T12:34:52.253Z,57.20
2023-02-09T12:40:24.170Z,57.40
2023-02-09T12:45:34.817Z,57.20
2023-02-09T12:50:54.311Z,56.90
2023-02-09T12:56:05.104Z,56.50
2023-02-09T13:01:09.190Z,56.30
2023-02-09T13:06:27.711Z,56.70
2023-02-09T13:11:44.340Z,57.40
2023-02-09T13:17:20.078Z,57.60
2023-02-09T13:22:31.111Z,57.60
2023-02-09T13:27:45.192Z,58.10
2023-02-09T13:32:56.769Z,58.80
2023-02-09T13:38:01.960Z,59.20
2023-02-09T13:43:18.292Z,59.20
2023-02-09T13:48:25.204Z,59.10
2023-02-09T13:53:30.659Z,59.10
2023-02-09T13:58:38.032Z,59.00
2023-02-09T14:03:57.560Z,58.90
2023-02-09T14:09:02.867Z,59.20
2023-02-09T14:14:12.051Z,59.40
2023-02-09T14:19:27.219Z,59.40
2023-02-09T14:24:43.002Z,59.60
2023-02-09T14:29:49.629Z,59.70
2023-02-09T14:34:53.457Z,59.80
2023-02-09T14:40:00.799Z,59.80
2023-02-09T14:45:39.398Z,60.60
2023-02-09T14:50:43.115Z,60.20
2023-02-09T14:55:47.367Z,60.20
2023-02-09T15:00:54.002Z,59.90
2023-02-09T15:06:00.217Z,59.90
2023-02-09T15:11:26.320Z,59.50
2023-02-09T15:16:31.970Z,58.80
2023-02-09T15:21:35.624Z,58.80
2023-02-09T15:26:39.789Z,59.40
2023-02-09T15:31:44.882Z,59.50
2023-02-09T15:36:48.674Z,59.50
2023-02-09T15:42:09.618Z,59.40
2023-02-09T15:47:32.576Z,59.70
2023-02-09T15:52:36.299Z,60.30
2023-02-09T15:57:39.907Z,61.10
2023-02-09T16:02:44.940Z,61.50
2023-02-09T16:07:51.699Z,61.70
2023-02-09T16:12:55.524Z,61.90
2023-02-09T16:18:00.535Z,62.20
2023-02-09T16:23:19.737Z,62.30
2023-02-09T16:28:24.138Z,62.40
2023-02-09T16:33:29.196Z,62.40
2023-02-09T16:38:33.129Z,62.50
2023-02-09T16:43:36.974Z,62.70
2023-02-09T16:48:46.379Z,63.10
2023-02-09T16:53:52.580Z,63.10
2023-02-09T16:58:56.190Z,63.10
2023-02-09T17:04:02.809Z,63.50
2023-02-09T17:09:11.633Z,63.50
2023-02-09T17:14:15.246Z,63.60
2023-02-09T17:19:20.299Z,63.90
2023-02-09T17:24:23.933Z,64.00
2023-02-09T17:29:27.575Z,64.10
2023-02-09T17:34:32.745Z,64.00
2023-02-09T17:39:36.388Z,64.10
2023-02-09T17:44:51.675Z,64.20
2023-02-09T17:49:56.707Z,64.20
2023-02-09T17:55:00.456Z,64.50
2023-02-09T18:00:04.631Z,64.70
2023-02-09T18:05:14.757Z,64.80
2023-02-09T18:10:19.812Z,64.90
2023-02-09T18:15:26.861Z,65.10
2023-02-09T18:20:34.290Z,65.30
2023-02-09T18:25:40.095Z,65.30
2023-02-09T18:30:44.813Z,65.60
2023-02-09T18:35:50.613Z,65.80
2023-02-09T18:40:57.316Z,65.80
2023-02-09T18:46:03.899Z,66.00
2023-02-09T18:51:10.234Z,66.20
2023-02-09T18:56:18.984Z,66.30
2023-02-09T19:01:24.807Z,66.40
2023-02-09T19:06:32.636Z,66.40
2023-02-09T19:11:36.318Z,66.70
2023-02-09T19:16:41.215Z,66.80
2023-02-09T19:21:47.603Z,67.20
2023-02-09T19:26:51.283Z,67.40
2023-02-09T19:31:55.854Z,67.40
2023-02-09T19:37:00.874Z,67.40
2023-02-09T19:42:04.382Z,67.40
2023-02-09T19:47:08.549Z,67.50
2023-02-09T19:52:13.545Z,67.50
2023-02-09T19:57:17.761Z,67.80
2023-02-09T20:02:21.366Z,68.10
2023-02-09T20:07:26.382Z,68.30
2023-02-09T20:12:30.114Z,68.30
2023-02-09T20:17:33.906Z,68.20
2023-02-09T20:22:39.080Z,68.40
2023-02-09T20:27:42.944Z,68.60
2023-02-09T20:32:46.557Z,68.70
2023-02-09T20:37:52.844Z,68.90
2023-02-09T20:43:13.982Z,69.10
2023-02-09T20:48:18.119Z,69.40
2023-02-09T20:53:23.683Z,69.50
2023-02-09T20:58:27.354Z,69.40
2023-02-09T21:03:31.257Z,69.70
2023-02-09T21:08:38.243Z,69.90
2023-02-09T21:13:42.142Z,70.00
2023-02-09T21:18:45.887Z,70.00
2023-02-09T21:23:51.041Z,70.30
2023-02-09T21:28:56.878Z,70.50
2023-02-09T21:34:00.645Z,70.50
2023-02-09T21:39:05.714Z,70.70
2023-02-09T21:44:11.701Z,70.90
2023-02-09T21:49:15.606Z,71.30
2023-02-09T21:54:20.687Z,71.20
2023-02-09T21:59:24.368Z,71.10
2023-02-09T22:04:28.025Z,71.10
2023-02-09T22:09:33.151Z,71.30
2023-02-09T22:14:37.210Z,71.70
2023-02-09T22:19:40.910Z,72.00
2023-02-09T22:24:46.034Z,71.90
2023-02-09T22:29:49.701Z,72.20
2023-02-09T22:34:53.341Z,72.30
2023-02-09T22:39:58.871Z,72.40
2023-02-09T22:45:02.622Z,72.50
2023-02-09T22:50:07.021Z,72.70
2023-02-09T22:55:12.107Z,72.70
2023-02-09T23:00:17.460Z,72.90
2023-02-09T23:05:21.217Z,73.10
2023-02-09T23:10:26.187Z,73.20
2023-02-09T23:15:30.093Z,73.30
2023-02-09T23:20:33.789Z,73.50
2023-02-09T23:25:38.817Z,73.60
